createdAt,value
2019-03-30T00:00:30.776Z,10.90
2019-03-30T00:02:58.811Z,10.27
2019-03-30T00:05:26.948Z,11.87
2019-03-30T00:07:55.017Z,10.80
2019-03-30T00:10:23.076Z,11.70
2019-03-30T00:12:51.071Z,11.43
2019-03-30T00:15:19.346Z,11.73
2019-03-30T00:17:47.441Z,11.90
2019-03-30T00:20:15.470Z,11.53
2019-03-30T00:22:43.462Z,11.53
2019-03-30T00:25:11.514Z,10.90
2019-03-30T00:27:39.953Z,11.13
2019-03-30T00:30:08.818Z,11.10
2019-03-30T00:32:36.850Z,10.97
2019-03-30T00:35:05.471Z,11.27
2019-03-30T00:37:33.483Z,11.73
2019-03-30T00:40:01.538Z,11.23
2019-03-30T00:42:29.875Z,11.70
2019-03-30T00:44:57.927Z,11.23
2019-03-30T00:47:25.976Z,11.37
2019-03-30T00:49:53.957Z,12.37
2019-03-30T00:52:22.041Z,12.47
2019-03-30T00:54:50.073Z,12.20
2019-03-30T00:57:18.436Z,11.80
2019-03-30T00:59:46.481Z,12.57
2019-03-30T01:02:14.500Z,12.23
2019-03-30T01:04:42.549Z,12.40
2019-03-30T01:07:10.558Z,11.27
2019-03-30T01:09:38.613Z,11.90
2019-03-30T01:12:06.783Z,11.83
2019-03-30T01:14:34.815Z,13.03
2019-03-30T01:17:02.970Z,12.20
2019-03-30T01:19:31.003Z,12.03
2019-03-30T01:21:59.012Z,11.40
2019-03-30T01:24:27.061Z,10.77
2019-03-30T01:26:55.091Z,11.70
2019-03-30T01:29:23.129Z,12.57
2019-03-30T01:31:51.130Z,11.87
2019-03-30T01:34:19.131Z,11.90
2019-03-30T01:36:47.309Z,11.70
2019-03-30T01:39:15.307Z,12.43
2019-03-30T01:41:43.350Z,12.00
2019-03-30T01:44:11.456Z,11.60
2019-03-30T01:46:39.431Z,11.40
2019-03-30T01:49:07.442Z,12.07
2019-03-30T01:51:35.500Z,13.13
2019-03-30T01:54:03.606Z,11.43
2019-03-30T01:56:31.630Z,11.47
2019-03-30T01:58:59.655Z,11.80
2019-03-30T02:01:27.633Z,10.97
2019-03-30T02:03:55.610Z,12.37
2019-03-30T02:06:23.707Z,11.23
2019-03-30T02:08:51.747Z,10.73
2019-03-30T02:11:19.792Z,12.90
2019-03-30T02:13:47.835Z,11.57
2019-03-30T02:16:15.872Z,11.13
2019-03-30T02:18:43.904Z,10.37
2019-03-30T02:21:11.889Z,11.23
2019-03-30T02:23:39.950Z,10.77
2019-03-30T02:26:07.997Z,11.70
2019-03-30T02:28:35.999Z,11.63
2019-03-30T02:31:04.152Z,11.47
2019-03-30T02:33:32.259Z,11.13
2019-03-30T02:36:00.347Z,10.30
2019-03-30T02:38:28.355Z,11.00
2019-03-30T02:40:56.484Z,11.10
2019-03-30T02:43:24.470Z,11.40
2019-03-30T02:45:52.552Z,10.83
2019-03-30T02:48:20.610Z,12.87
2019-03-30T02:50:50.647Z,12.17
2019-03-30T02:53:18.490Z,11.30
2019-03-30T02:55:46.587Z,12.53
2019-03-30T02:58:14.651Z,12.40
2019-03-30T03:00:42.767Z,10.70
2019-03-30T03:03:10.745Z,13.37
2019-03-30T03:05:39.188Z,12.87
2019-03-30T03:08:07.254Z,13.70
2019-03-30T03:10:35.341Z,12.70
2019-03-30T03:13:03.342Z,12.83
2019-03-30T03:15:31.375Z,12.17
2019-03-30T03:17:59.432Z,12.83
2019-03-30T03:20:27.468Z,14.03
2019-03-30T03:22:55.504Z,13.47
2019-03-30T03:25:23.527Z,13.30
2019-03-30T03:27:51.519Z,13.73
2019-03-30T03:30:19.803Z,14.27
2019-03-30T03:32:47.850Z,13.77
2019-03-30T03:35:15.845Z,13.47
2019-03-30T03:37:46.208Z,13.47
2019-03-30T03:40:13.712Z,13.43
2019-03-30T03:42:41.780Z,13.30
2019-03-30T03:45:10.318Z,13.00
2019-03-30T03:47:38.364Z,15.23
2019-03-30T03:50:09.628Z,16.90
2019-03-30T03:52:37.676Z,16.50
2019-03-30T03:55:06.404Z,15.50
2019-03-30T03:57:38.406Z,15.03
2019-03-30T04:00:08.385Z,13.20
2019-03-30T04:02:37.004Z,13.90
2019-03-30T04:05:06.922Z,14.77
2019-03-30T04:07:39.992Z,14.20
2019-03-30T04:10:08.378Z,13.83
2019-03-30T04:12:36.873Z,14.73
2019-03-30T04:15:06.704Z,13.50
2019-03-30T04:17:35.001Z,15.10
2019-03-30T04:20:03.526Z,14.13
2019-03-30T04:22:31.565Z,15.27
2019-03-30T04:24:59.579Z,14.50
2019-03-30T04:27:27.604Z,15.57
2019-03-30T04:29:55.605Z,13.83
2019-03-30T04:32:23.614Z,13.93
2019-03-30T04:34:51.756Z,13.83
2019-03-30T04:37:28.117Z,14.60
2019-03-30T04:39:56.170Z,14.00
2019-03-30T04:42:24.181Z,14.27
2019-03-30T04:44:52.212Z,14.10
2019-03-30T04:47:20.266Z,13.80
2019-03-30T04:49:48.270Z,13.13
2019-03-30T04:52:16.369Z,13.87
2019-03-30T04:54:44.364Z,12.40
2019-03-30T04:57:12.424Z,12.07
2019-03-30T04:59:40.491Z,12.57
2019-03-30T05:02:08.543Z,12.23
2019-03-30T05:04:36.587Z,12.93
2019-03-30T05:07:04.643Z,12.50
2019-03-30T05:09:32.944Z,12.40
2019-03-30T05:12:00.975Z,11.73
2019-03-30T05:14:29.060Z,13.33
2019-03-30T05:16:57.079Z,12.70
2019-03-30T05:19:25.119Z,12.60
2019-03-30T05:21:53.155Z,12.87
2019-03-30T05:24:21.466Z,13.43
2019-03-30T05:26:49.463Z,13.77
2019-03-30T05:29:17.451Z,13.87
2019-03-30T05:31:45.686Z,12.40
2019-03-30T05:34:13.682Z,12.30
2019-03-30T05:36:41.695Z,12.33
2019-03-30T05:39:09.734Z,12.13
2019-03-30T05:41:37.810Z,14.17
2019-03-30T05:44:05.963Z,13.83
2019-03-30T05:46:34.085Z,14.40
2019-03-30T05:49:02.423Z,13.77
2019-03-30T05:51:30.414Z,14.30
2019-03-30T05:53:58.410Z,13.17
2019-03-30T05:56:26.435Z,13.83
2019-03-30T05:58:54.427Z,13.63
2019-03-30T06:01:22.458Z,12.60
2019-03-30T06:03:50.441Z,13.27
2019-03-30T06:06:18.445Z,14.00
2019-03-30T06:08:46.469Z,13.77
2019-03-30T06:11:14.472Z,13.00
2019-03-30T06:13:42.469Z,13.57
2019-03-30T06:16:10.486Z,13.03
2019-03-30T06:18:38.474Z,12.87
2019-03-30T06:21:06.659Z,13.00
2019-03-30T06:23:35.005Z,13.77
2019-03-30T06:26:03.046Z,12.77
2019-03-30T06:28:31.045Z,13.03
2019-03-30T06:30:59.075Z,13.70
2019-03-30T06:33:27.104Z,12.33
2019-03-30T06:35:55.087Z,13.03
2019-03-30T06:38:23.099Z,13.07
2019-03-30T06:40:51.094Z,12.80
2019-03-30T06:43:19.100Z,13.17
2019-03-30T06:45:47.147Z,12.37
2019-03-30T06:48:15.197Z,13.50
2019-03-30T06:50:43.159Z,13.33
2019-03-30T06:53:11.211Z,13.37
2019-03-30T06:55:39.236Z,13.33
2019-03-30T06:58:07.254Z,13.27
2019-03-30T07:00:35.523Z,14.33
2019-03-30T07:03:05.623Z,13.93
2019-03-30T07:05:40.975Z,13.70
2019-03-30T07:08:11.818Z,14.30
2019-03-30T07:10:39.900Z,15.33
2019-03-30T07:13:08.737Z,14.80
2019-03-30T07:15:44.093Z,14.50
2019-03-30T07:18:13.280Z,14.60
2019-03-30T07:20:41.225Z,14.67
2019-03-30T07:23:12.446Z,14.10
2019-03-30T07:25:38.998Z,13.27
2019-03-30T07:28:06.973Z,13.23
2019-03-30T07:30:35.380Z,13.50
2019-03-30T07:33:03.358Z,14.60
2019-03-30T07:35:31.470Z,14.30
2019-03-30T07:37:59.479Z,13.27
2019-03-30T07:40:27.455Z,12.87
2019-03-30T07:42:55.432Z,13.67
2019-03-30T07:45:23.453Z,13.80
2019-03-30T07:47:51.902Z,14.80
2019-03-30T07:50:20.143Z,14.13
2019-03-30T07:52:48.344Z,14.63
2019-03-30T07:55:19.882Z,14.03
2019-03-30T07:57:48.882Z,14.23
2019-03-30T08:00:17.151Z,14.07
2019-03-30T08:02:46.001Z,14.93
2019-03-30T08:05:14.255Z,15.43
2019-03-30T08:07:42.372Z,14.50
2019-03-30T08:10:10.798Z,15.00
2019-03-30T08:12:38.815Z,14.45
2019-03-30T08:15:07.403Z,14.35
2019-03-30T08:17:35.401Z,15.45
2019-03-30T08:20:03.855Z,15.43
2019-03-30T08:22:32.121Z,14.98
2019-03-30T08:25:00.263Z,14.68
2019-03-30T08:27:28.282Z,15.08
2019-03-30T08:29:56.286Z,15.18
2019-03-30T08:32:24.260Z,15.55
2019-03-30T08:34:52.271Z,14.65
2019-03-30T08:37:20.243Z,14.80
2019-03-30T08:39:50.065Z,15.83
2019-03-30T08:42:19.003Z,16.65
2019-03-30T08:44:47.057Z,15.15
2019-03-30T08:47:15.837Z,16.12
2019-03-30T08:49:44.258Z,16.23
2019-03-30T08:52:12.282Z,16.40
2019-03-30T08:54:40.271Z,16.60
2019-03-30T08:57:08.307Z,16.52
2019-03-30T08:59:36.361Z,17.17
2019-03-30T09:02:04.372Z,17.20
2019-03-30T09:04:32.775Z,16.97
2019-03-30T09:07:00.792Z,17.25
2019-03-30T09:09:29.627Z,17.20
2019-03-30T09:11:57.652Z,16.87
2019-03-30T09:14:25.690Z,17.37
2019-03-30T09:16:54.597Z,17.40
2019-03-30T09:19:22.579Z,16.32
2019-03-30T09:21:50.588Z,18.40
2019-03-30T09:24:18.604Z,17.90
2019-03-30T09:26:46.588Z,18.35
2019-03-30T09:29:14.614Z,18.10
2019-03-30T09:31:42.637Z,18.17
2019-03-30T09:34:10.636Z,17.65
2019-03-30T09:36:38.767Z,18.17
2019-03-30T09:39:06.735Z,18.10
2019-03-30T09:41:34.849Z,18.07
2019-03-30T09:44:02.865Z,18.73
2019-03-30T09:46:30.914Z,18.45
2019-03-30T09:48:58.966Z,18.15
2019-03-30T09:51:26.988Z,17.87
2019-03-30T09:53:54.975Z,18.40
2019-03-30T09:56:23.014Z,17.95
2019-03-30T09:58:50.989Z,19.27
2019-03-30T10:01:19.000Z,17.52
2019-03-30T10:03:47.044Z,19.48
2019-03-30T10:06:15.133Z,19.32
2019-03-30T10:08:43.172Z,18.60
2019-03-30T10:11:11.197Z,18.75
2019-03-30T10:13:39.270Z,17.65
2019-03-30T10:16:07.854Z,19.07
2019-03-30T10:18:35.906Z,18.67
2019-03-30T10:21:03.930Z,18.87
2019-03-30T10:23:31.939Z,18.82
2019-03-30T10:26:00.015Z,19.42
2019-03-30T10:28:28.395Z,19.10
2019-03-30T10:30:56.338Z,19.15
2019-03-30T10:33:24.372Z,20.52
2019-03-30T10:35:52.410Z,19.00
2019-03-30T10:38:20.414Z,18.35
2019-03-30T10:40:48.702Z,18.12
2019-03-30T10:43:16.674Z,17.23
2019-03-30T10:45:44.730Z,17.77
2019-03-30T10:48:12.791Z,19.07
2019-03-30T10:50:40.799Z,18.25
2019-03-30T10:53:08.863Z,16.90
2019-03-30T10:55:36.869Z,17.57
2019-03-30T10:58:04.881Z,17.60
2019-03-30T11:00:37.621Z,18.70
2019-03-30T11:03:05.640Z,18.67
2019-03-30T11:05:33.694Z,18.67
2019-03-30T11:08:01.721Z,18.75
2019-03-30T11:10:29.715Z,17.98
2019-03-30T11:12:57.735Z,18.45
2019-03-30T11:15:25.751Z,18.12
2019-03-30T11:17:53.768Z,17.48
2019-03-30T11:20:21.815Z,17.48
2019-03-30T11:22:49.797Z,17.05
2019-03-30T11:25:17.834Z,18.45
2019-03-30T11:27:45.858Z,16.67
2019-03-30T11:30:14.272Z,18.77
2019-03-30T11:32:42.317Z,18.67
2019-03-30T11:35:10.428Z,18.30
2019-03-30T11:37:38.465Z,18.12
2019-03-30T11:40:06.747Z,18.50
2019-03-30T11:42:35.225Z,19.02
2019-03-30T11:45:04.595Z,19.12
2019-03-30T11:47:32.634Z,18.35
2019-03-30T11:50:00.631Z,17.50
2019-03-30T11:52:28.704Z,18.52
2019-03-30T11:54:56.758Z,17.27
2019-03-30T11:57:24.869Z,17.57
2019-03-30T11:59:52.980Z,16.75
2019-03-30T12:02:27.989Z,17.75
2019-03-30T12:04:53.672Z,17.55
2019-03-30T12:07:21.858Z,17.32
2019-03-30T12:09:49.927Z,17.27
2019-03-30T12:12:18.418Z,16.80
2019-03-30T12:14:47.044Z,16.42
2019-03-30T12:17:15.425Z,16.25
2019-03-30T12:19:43.479Z,15.75
2019-03-30T12:22:12.395Z,16.60
2019-03-30T12:24:40.595Z,15.68
2019-03-30T12:27:08.596Z,15.75
2019-03-30T12:29:36.605Z,15.43
2019-03-30T12:32:05.283Z,16.02
2019-03-30T12:34:33.585Z,15.40
2019-03-30T12:37:01.741Z,15.48
2019-03-30T12:39:30.108Z,15.00
2019-03-30T12:41:58.263Z,16.00
2019-03-30T12:44:26.294Z,17.02
2019-03-30T12:46:54.661Z,15.65
2019-03-30T12:49:24.501Z,15.38
2019-03-30T12:51:52.843Z,16.42
2019-03-30T12:54:20.883Z,15.65
2019-03-30T12:56:48.880Z,16.27
2019-03-30T12:59:17.154Z,14.93
2019-03-30T13:01:45.326Z,15.05
2019-03-30T13:04:13.421Z,14.38
2019-03-30T13:06:41.484Z,14.00
2019-03-30T13:09:09.635Z,13.55
2019-03-30T13:11:37.740Z,12.93
2019-03-30T13:14:05.732Z,13.18
2019-03-30T13:16:33.776Z,13.53
2019-03-30T13:19:04.410Z,13.80
2019-03-30T13:21:32.754Z,13.45
2019-03-30T13:24:01.705Z,13.28
2019-03-30T13:26:29.767Z,13.05
2019-03-30T13:28:58.058Z,13.85
2019-03-30T13:31:26.065Z,13.32
2019-03-30T13:33:54.132Z,13.18
2019-03-30T13:36:38.319Z,12.63
2019-03-30T13:39:07.032Z,9.13
2019-03-30T13:41:35.476Z,10.30
2019-03-30T13:44:03.871Z,8.90
2019-03-30T13:46:31.973Z,8.78
2019-03-30T13:49:00.995Z,9.18
2019-03-30T13:51:29.106Z,9.48
2019-03-30T13:53:57.088Z,8.95
2019-03-30T13:56:25.116Z,8.63
2019-03-30T13:58:53.646Z,9.05
2019-03-30T14:01:22.080Z,9.33
2019-03-30T14:03:50.127Z,8.78
2019-03-30T14:06:18.246Z,9.15
2019-03-30T14:08:46.286Z,8.33
2019-03-30T14:11:14.427Z,8.98
2019-03-30T14:13:42.440Z,8.53
2019-03-30T14:16:10.527Z,8.33
2019-03-30T14:18:41.937Z,9.25
2019-03-30T14:21:10.020Z,8.15
2019-03-30T14:23:38.389Z,8.10
2019-03-30T14:26:06.933Z,9.23
2019-03-30T14:28:35.103Z,8.48
2019-03-30T14:31:03.168Z,8.80
2019-03-30T14:33:31.195Z,8.18
2019-03-30T14:35:59.202Z,8.50
2019-03-30T14:38:27.264Z,9.03
2019-03-30T14:40:55.726Z,8.93
2019-03-30T14:43:23.818Z,8.40
2019-03-30T14:45:51.843Z,8.50
2019-03-30T14:48:19.924Z,8.18
2019-03-30T14:50:47.981Z,9.18
2019-03-30T14:53:16.181Z,7.67
2019-03-30T14:55:44.690Z,8.50
2019-03-30T14:58:12.791Z,9.28
2019-03-30T15:00:40.982Z,8.30
2019-03-30T15:03:09.124Z,9.03
2019-03-30T15:05:37.580Z,9.00
2019-03-30T15:08:06.193Z,8.28
2019-03-30T15:10:34.677Z,8.33
2019-03-30T15:13:02.924Z,9.58
2019-03-30T15:15:31.035Z,9.65
2019-03-30T15:17:59.389Z,9.33
2019-03-30T15:20:27.468Z,8.45
2019-03-30T15:22:55.509Z,8.83
2019-03-30T15:25:23.618Z,9.20
2019-03-30T15:27:51.721Z,9.95
2019-03-30T15:30:19.792Z,9.50
2019-03-30T15:32:47.897Z,9.23
2019-03-30T15:35:15.971Z,9.05
2019-03-30T15:37:44.015Z,9.90
2019-03-30T15:40:14.430Z,9.60
2019-03-30T15:42:42.656Z,9.78
2019-03-30T15:45:11.146Z,8.70
2019-03-30T15:47:39.248Z,9.63
2019-03-30T15:50:07.969Z,9.03
2019-03-30T15:52:36.266Z,9.75
2019-03-30T15:55:04.560Z,9.18
2019-03-30T15:57:32.604Z,8.45
2019-03-30T16:00:00.721Z,8.98
2019-03-30T16:02:30.386Z,9.10
2019-03-30T16:05:00.770Z,9.60
2019-03-30T16:07:28.793Z,8.93
2019-03-30T16:09:56.953Z,8.63
2019-03-30T16:12:25.045Z,8.75
2019-03-30T16:14:53.401Z,9.63
2019-03-30T16:17:22.033Z,8.60
2019-03-30T16:19:50.151Z,7.65
2019-03-30T16:22:18.229Z,8.18
2019-03-30T16:24:46.240Z,7.78
2019-03-30T16:27:27.853Z,7.87
2019-03-30T16:29:44.143Z,9.18
2019-03-30T16:32:12.278Z,7.92
2019-03-30T16:34:40.271Z,8.00
2019-03-30T16:37:08.298Z,8.55
2019-03-30T16:39:36.368Z,7.53
2019-03-30T16:42:04.405Z,7.22
2019-03-30T16:44:32.721Z,7.78
2019-03-30T16:47:00.785Z,8.20
2019-03-30T16:49:28.805Z,10.90
2019-03-30T16:51:56.782Z,9.15
2019-03-30T16:54:24.825Z,8.53
2019-03-30T16:56:52.806Z,8.35
2019-03-30T16:59:20.847Z,7.55
2019-03-30T17:01:48.882Z,8.15
2019-03-30T17:04:16.919Z,9.23
2019-03-30T17:06:45.001Z,9.03
2019-03-30T17:09:13.024Z,9.70
2019-03-30T17:11:41.509Z,8.60
2019-03-30T17:14:09.584Z,9.20
2019-03-30T17:16:37.644Z,8.08
2019-03-30T17:19:05.688Z,8.73
2019-03-30T17:21:33.727Z,8.28
2019-03-30T17:24:01.838Z,8.55
2019-03-30T17:26:29.911Z,8.38
2019-03-30T17:28:57.948Z,8.55
2019-03-30T17:31:26.031Z,8.50
2019-03-30T17:33:54.017Z,9.30
2019-03-30T17:36:22.290Z,10.85
2019-03-30T17:38:50.604Z,9.88
2019-03-30T17:41:18.602Z,10.10
2019-03-30T17:43:46.611Z,9.90
2019-03-30T17:46:14.627Z,12.40
2019-03-30T17:48:42.670Z,9.80
2019-03-30T17:51:10.666Z,9.28
2019-03-30T17:53:39.546Z,8.80
2019-03-30T17:56:07.617Z,10.23
2019-03-30T17:58:35.768Z,9.63
2019-03-30T18:01:03.818Z,9.05
2019-03-30T18:03:31.827Z,7.10
2019-03-30T18:05:59.863Z,8.60
2019-03-30T18:08:27.890Z,7.72
2019-03-30T18:10:55.905Z,8.25
2019-03-30T18:13:23.931Z,8.53
2019-03-30T18:15:51.935Z,11.78
2019-03-30T18:18:19.921Z,9.05
2019-03-30T18:20:48.031Z,8.25
2019-03-30T18:23:16.018Z,7.20
2019-03-30T18:25:44.011Z,7.00
2019-03-30T18:28:26.211Z,8.08
2019-03-30T18:30:41.887Z,8.80
2019-03-30T18:33:10.070Z,9.73
2019-03-30T18:35:39.762Z,9.03
2019-03-30T18:38:08.525Z,9.75
2019-03-30T18:40:36.666Z,9.38
2019-03-30T18:43:04.781Z,9.25
2019-03-30T18:45:33.002Z,8.63
2019-03-30T18:48:11.808Z,8.45
2019-03-30T18:50:41.094Z,20.82
2019-03-30T18:53:09.323Z,12.40
2019-03-30T18:55:37.388Z,10.58
2019-03-30T18:58:05.475Z,13.83
2019-03-30T19:00:33.561Z,11.05
2019-03-30T19:03:01.607Z,22.30
2019-03-30T19:05:29.663Z,13.45
2019-03-30T19:07:58.470Z,13.10
2019-03-30T19:10:26.608Z,11.93
2019-03-30T19:12:55.060Z,13.08
2019-03-30T19:15:23.458Z,13.68
2019-03-30T19:17:51.575Z,11.97
2019-03-30T19:20:19.622Z,13.83
2019-03-30T19:22:47.675Z,13.13
2019-03-30T19:25:15.727Z,12.78
2019-03-30T19:27:44.134Z,11.80
2019-03-30T19:30:12.692Z,12.50
2019-03-30T19:32:41.143Z,13.45
2019-03-30T19:35:09.319Z,12.50
2019-03-30T19:37:37.415Z,11.75
2019-03-30T19:40:05.815Z,12.58
2019-03-30T19:42:34.881Z,13.15
2019-03-30T19:45:03.512Z,14.13
2019-03-30T19:47:31.537Z,14.90
2019-03-30T19:50:02.245Z,15.48
2019-03-30T19:52:39.854Z,13.68
2019-03-30T19:55:00.353Z,15.63
2019-03-30T19:57:28.880Z,9.50
2019-03-30T19:59:56.997Z,9.03
2019-03-30T20:02:25.079Z,8.80
2019-03-30T20:04:54.956Z,9.80
2019-03-30T20:07:23.092Z,11.10
2019-03-30T20:09:51.428Z,11.55
2019-03-30T20:12:19.731Z,11.03
2019-03-30T20:14:47.881Z,13.60
2019-03-30T20:17:15.888Z,11.33
2019-03-30T20:19:44.552Z,10.75
2019-03-30T20:22:12.598Z,11.85
2019-03-30T20:24:40.728Z,11.12
2019-03-30T20:27:08.758Z,12.65
2019-03-30T20:29:36.821Z,12.23
2019-03-30T20:32:06.882Z,12.07
2019-03-30T20:34:34.954Z,11.45
2019-03-30T20:37:03.072Z,11.83
2019-03-30T20:39:31.227Z,11.80
2019-03-30T20:41:59.427Z,11.50
2019-03-30T20:44:27.994Z,10.85
2019-03-30T20:46:56.119Z,12.95
2019-03-30T20:49:24.491Z,12.55
2019-03-30T20:51:52.574Z,12.98
2019-03-30T20:54:20.593Z,12.07
2019-03-30T20:56:48.635Z,10.40
2019-03-30T20:59:16.982Z,10.10
2019-03-30T21:01:46.120Z,9.68
2019-03-30T21:04:14.935Z,11.73
2019-03-30T21:06:47.190Z,10.40
2019-03-30T21:09:15.285Z,9.95
2019-03-30T21:11:43.672Z,8.75
2019-03-30T21:14:12.083Z,8.73
2019-03-30T21:16:40.136Z,8.15
2019-03-30T21:19:08.271Z,9.13
2019-03-30T21:21:36.414Z,8.85
2019-03-30T21:24:04.453Z,8.88
2019-03-30T21:26:32.603Z,9.80
2019-03-30T21:29:00.659Z,8.48
2019-03-30T21:31:30.013Z,8.80
2019-03-30T21:33:58.275Z,9.38
2019-03-30T21:36:26.264Z,9.08
2019-03-30T21:38:54.613Z,9.28
2019-03-30T21:41:22.783Z,9.58
2019-03-30T21:43:50.861Z,9.90
2019-03-30T21:46:20.269Z,9.33
2019-03-30T21:48:48.319Z,10.00
2019-03-30T21:51:16.456Z,10.30
2019-03-30T21:53:44.556Z,9.43
2019-03-30T21:56:12.605Z,10.05
2019-03-30T21:58:40.690Z,9.55
2019-03-30T22:01:08.793Z,9.50
2019-03-30T22:03:36.857Z,10.63
2019-03-30T22:06:04.909Z,10.20
2019-03-30T22:08:32.960Z,10.25
2019-03-30T22:11:01.171Z,9.00
2019-03-30T22:13:29.277Z,10.10
2019-03-30T22:15:58.345Z,9.80
2019-03-30T22:18:26.409Z,10.32
2019-03-30T22:20:54.447Z,10.20
2019-03-30T22:23:22.572Z,9.63
2019-03-30T22:25:50.618Z,11.88
2019-03-30T22:28:18.758Z,9.73
2019-03-30T22:30:46.892Z,9.13
2019-03-30T22:33:15.102Z,8.38
2019-03-30T22:35:43.204Z,9.50
2019-03-30T22:38:11.334Z,9.17
2019-03-30T22:40:41.382Z,9.27
2019-03-30T22:43:09.246Z,9.27
2019-03-30T22:45:37.337Z,10.17
2019-03-30T22:48:05.763Z,10.07
2019-03-30T22:50:33.995Z,10.37
2019-03-30T22:53:02.073Z,10.03
2019-03-30T22:55:30.612Z,10.77
2019-03-30T22:58:00.189Z,10.07
2019-03-30T23:00:49.738Z,10.67
2019-03-30T23:03:18.186Z,9.57
2019-03-30T23:05:48.291Z,8.93
2019-03-30T23:08:17.255Z,8.47
2019-03-30T23:10:45.326Z,9.17
2019-03-30T23:13:13.699Z,8.17
2019-03-30T23:15:41.737Z,7.63
2019-03-30T23:18:11.394Z,8.27
2019-03-30T23:20:40.424Z,8.30
2019-03-30T23:23:09.088Z,9.27
2019-03-30T23:25:37.270Z,8.87
2019-03-30T23:28:05.734Z,8.20
2019-03-30T23:30:35.140Z,8.57
2019-03-30T23:33:03.567Z,8.57
2019-03-30T23:35:44.760Z,8.57
2019-03-30T23:38:13.192Z,10.90
2019-03-30T23:40:41.944Z,11.40
2019-03-30T23:43:10.105Z,11.40
2019-03-30T23:45:38.199Z,11.20
2019-03-30T23:48:06.643Z,11.00
2019-03-30T23:50:36.389Z,11.20
2019-03-30T23:53:23.825Z,11.37
2019-03-30T23:55:51.928Z,10.97
2019-03-30T23:58:22.485Z,10.30
